sensor_id;sensor_type;location;lat;lon;timestamp;temperature;humidity
36322;DHT22;23564;48.290;11.460;2023-02-28T00:00:39;-1.20;1.00
36322;DHT22;23564;48.290;11.460;2023-02-28T00:03:05;-1.20;1.00
36322;DHT22;23564;48.290;11.460;2023-02-28T00:05:31;-1.20;99.90
36322;DHT22;23564;48.290;11.460;2023-02-28T00:07:57;-1.20;69.70
36322;DHT22;23564;48.290;11.460;2023-02-28T00:10:25;-1.30;99.90
36322;DHT22;23564;48.290;11.460;2023-02-28T00:12:53;-1.30;99.90
36322;DHT22;23564;48.290;11.460;2023-02-28T00:15:19;-1.40;99.90
36322;DHT22;23564;48.290;11.460;2023-02-28T00:17:45;-1.40;1.00
36322;DHT22;23564;48.290;11.460;2023-02-28T00:20:11;-1.40;99.90
36322;DHT22;23564;48.290;11.460;2023-02-28T00:22:48;-1.40;99.90
36322;DHT22;23564;48.290;11.460;2023-02-28T00:25:17;-1.50;59.50
36322;DHT22;23564;48.290;11.460;2023-02-28T00:27:43;-1.50;82.90
36322;DHT22;23564;48.290;11.460;2023-02-28T00:30:15;-1.50;99.90
36322;DHT22;23564;48.290;11.460;2023-02-28T00:32:40;-1.50;99.90
36322;DHT22;23564;48.290;11.460;2023-02-28T00:35:07;-1.60;99.90
36322;DHT22;23564;48.290;11.460;2023-02-28T00:37:33;-1.60;99.90
36322;DHT22;23564;48.290;11.460;2023-02-28T00:39:59;-1.70;99.90
36322;DHT22;23564;48.290;11.460;2023-02-28T00:42:24;-1.70;1.00
36322;DHT22;23564;48.290;11.460;2023-02-28T00:44:50;-1.80;11.90
36322;DHT22;23564;48.290;11.460;2023-02-28T00:47:15;-1.80;92.30
36322;DHT22;23564;48.290;11.460;2023-02-28T00:49:42;-1.80;24.30
36322;DHT22;23564;48.290;11.460;2023-02-28T00:52:07;-1.80;99.90
36322;DHT22;23564;48.290;11.460;2023-02-28T00:54:33;-1.90;1.00
36322;DHT22;23564;48.290;11.460;2023-02-28T00:56:59;-1.90;1.00
36322;DHT22;23564;48.290;11.460;2023-02-28T00:59:25;-1.90;99.90
36322;DHT22;23564;48.290;11.460;2023-02-28T01:01:51;-1.90;99.90
36322;DHT22;23564;48.290;11.460;2023-02-28T01:04:16;-2.00;22.40
36322;DHT22;23564;48.290;11.460;2023-02-28T01:06:42;-2.00;1.00
36322;DHT22;23564;48.290;11.460;2023-02-28T01:09:08;-2.00;5.70
36322;DHT22;23564;48.290;11.460;2023-02-28T01:11:34;-2.00;1.00
36322;DHT22;23564;48.290;11.460;2023-02-28T01:14:01;-2.00;73.90
36322;DHT22;23564;48.290;11.460;2023-02-28T01:16:27;-2.00;1.00
36322;DHT22;23564;48.290;11.460;2023-02-28T01:18:53;-2.00;99.90
36322;DHT22;23564;48.290;11.460;2023-02-28T01:21:20;-2.00;56.40
36322;DHT22;23564;48.290;11.460;2023-02-28T01:23:47;-2.10;99.90
36322;DHT22;23564;48.290;11.460;2023-02-28T01:26:19;-2.10;99.90
36322;DHT22;23564;48.290;11.460;2023-02-28T01:28:45;-2.20;1.00
36322;DHT22;23564;48.290;11.460;2023-02-28T01:31:11;-2.20;99.90
36322;DHT22;23564;48.290;11.460;2023-02-28T01:33:37;-2.10;99.90
36322;DHT22;23564;48.290;11.460;2023-02-28T01:36:12;-2.10;99.90
36322;DHT22;23564;48.290;11.460;2023-02-28T01:38:38;-2.20;99.90
36322;DHT22;23564;48.290;11.460;2023-02-28T01:41:04;-2.20;1.00
36322;DHT22;23564;48.290;11.460;2023-02-28T01:43:53;-2.20;1.00
36322;DHT22;23564;48.290;11.460;2023-02-28T01:46:17;-2.30;77.00
36322;DHT22;23564;48.290;11.460;2023-02-28T01:48:57;-2.30;99.90
36322;DHT22;23564;48.290;11.460;2023-02-28T01:51:47;-2.30;1.00
36322;DHT22;23564;48.290;11.460;2023-02-28T01:54:29;-2.30;67.60
36322;DHT22;23564;48.290;11.460;2023-02-28T01:57:09;-2.30;1.00
36322;DHT22;23564;48.290;11.460;2023-02-28T02:02:02;-2.30;9.90
36322;DHT22;23564;48.290;11.460;2023-02-28T02:04:34;-2.30;1.00
36322;DHT22;23564;48.290;11.460;2023-02-28T02:07:00;-2.30;99.90
36322;DHT22;23564;48.290;11.460;2023-02-28T02:09:26;-2.30;80.50
36322;DHT22;23564;48.290;11.460;2023-02-28T02:11:55;-2.20;1.00
36322;DHT22;23564;48.290;11.460;2023-02-28T02:15:01;-2.20;57.90
36322;DHT22;23564;48.290;11.460;2023-02-28T02:17:36;-2.30;75.20
36322;DHT22;23564;48.290;11.460;2023-02-28T02:20:19;-2.30;1.00
36322;DHT22;23564;48.290;11.460;2023-02-28T02:25:38;-2.30;99.90
36322;DHT22;23564;48.290;11.460;2023-02-28T02:36:51;-2.30;99.90
36322;DHT22;23564;48.290;11.460;2023-02-28T02:41:52;-2.30;99.90
36322;DHT22;23564;48.290;11.460;2023-02-28T02:44:28;-2.20;99.90
36322;DHT22;23564;48.290;11.460;2023-02-28T02:47:15;-2.30;99.90
36322;DHT22;23564;48.290;11.460;2023-02-28T02:49:47;-2.30;99.90
36322;DHT22;23564;48.290;11.460;2023-02-28T02:52:16;-2.30;99.90
36322;DHT22;23564;48.290;11.460;2023-02-28T02:54:46;-2.30;99.90
36322;DHT22;23564;48.290;11.460;2023-02-28T02:57:17;-2.30;1.00
36322;DHT22;23564;48.290;11.460;2023-02-28T02:59:45;-2.30;1.00
36322;DHT22;23564;48.290;11.460;2023-02-28T03:02:12;-2.30;1.00
36322;DHT22;23564;48.290;11.460;2023-02-28T03:04:45;-2.30;1.00
36322;DHT22;23564;48.290;11.460;2023-02-28T03:07:11;-2.30;1.00
36322;DHT22;23564;48.290;11.460;2023-02-28T03:09:37;-2.30;38.60
36322;DHT22;23564;48.290;11.460;2023-02-28T03:12:04;-2.20;27.70
36322;DHT22;23564;48.290;11.460;2023-02-28T03:17:23;-2.10;1.00
36322;DHT22;23564;48.290;11.460;2023-02-28T03:33:18;-1.90;1.00
36322;DHT22;23564;48.290;11.460;2023-02-28T03:35:58;-1.90;1.00
36322;DHT22;23564;48.290;11.460;2023-02-28T03:41:19;-1.80;1.00
36322;DHT22;23564;48.290;11.460;2023-02-28T03:44:05;-1.80;1.00
36322;DHT22;23564;48.290;11.460;2023-02-28T03:46:35;-1.80;1.00
36322;DHT22;23564;48.290;11.460;2023-02-28T03:49:16;-1.80;1.00
36322;DHT22;23564;48.290;11.460;2023-02-28T03:51:44;-1.80;1.00
36322;DHT22;23564;48.290;11.460;2023-02-28T03:54:20;-1.80;1.00
36322;DHT22;23564;48.290;11.460;2023-02-28T03:59:56;-1.70;99.90
36322;DHT22;23564;48.290;11.460;2023-02-28T04:02:24;-1.70;99.90
36322;DHT22;23564;48.290;11.460;2023-02-28T04:04:50;-1.70;99.90
36322;DHT22;23564;48.290;11.460;2023-02-28T04:07:17;-1.70;1.00
36322;DHT22;23564;48.290;11.460;2023-02-28T04:09:43;-1.70;1.00
36322;DHT22;23564;48.290;11.460;2023-02-28T04:12:08;-1.70;1.00
36322;DHT22;23564;48.290;11.460;2023-02-28T04:14:34;-1.80;1.00
36322;DHT22;23564;48.290;11.460;2023-02-28T04:16:59;-1.70;1.00
36322;DHT22;23564;48.290;11.460;2023-02-28T04:19:25;-1.70;20.10
36322;DHT22;23564;48.290;11.460;2023-02-28T04:21:52;-1.70;1.00
36322;DHT22;23564;48.290;11.460;2023-02-28T04:24:23;-1.70;1.00
36322;DHT22;23564;48.290;11.460;2023-02-28T04:26:51;-1.60;1.00
36322;DHT22;23564;48.290;11.460;2023-02-28T04:29:29;-1.70;99.90
36322;DHT22;23564;48.290;11.460;2023-02-28T04:31:55;-1.70;1.00
36322;DHT22;23564;48.290;11.460;2023-02-28T04:34:23;-1.60;99.90
36322;DHT22;23564;48.290;11.460;2023-02-28T04:36:50;-1.60;99.90
36322;DHT22;23564;48.290;11.460;2023-02-28T04:39:16;-1.60;99.90
36322;DHT22;23564;48.290;11.460;2023-02-28T04:41:44;-1.60;99.90
36322;DHT22;23564;48.290;11.460;2023-02-28T04:44:09;-1.60;99.90
36322;DHT22;23564;48.290;11.460;2023-02-28T04:46:35;-1.60;1.00
36322;DHT22;23564;48.290;11.460;2023-02-28T04:49:01;-1.60;1.00
36322;DHT22;23564;48.290;11.460;2023-02-28T04:51:26;-1.60;1.00
36322;DHT22;23564;48.290;11.460;2023-02-28T04:53:52;-1.50;99.90
36322;DHT22;23564;48.290;11.460;2023-02-28T04:56:18;-1.60;99.90
36322;DHT22;23564;48.290;11.460;2023-02-28T04:58:44;-1.60;99.90
36322;DHT22;23564;48.290;11.460;2023-02-28T05:01:39;-1.60;99.90
36322;DHT22;23564;48.290;11.460;2023-02-28T05:04:05;-1.60;99.90
36322;DHT22;23564;48.290;11.460;2023-02-28T05:06:32;-1.60;93.70
36322;DHT22;23564;48.290;11.460;2023-02-28T05:08:58;-1.60;99.90
36322;DHT22;23564;48.290;11.460;2023-02-28T05:11:30;-1.60;99.90
36322;DHT22;23564;48.290;11.460;2023-02-28T05:14:04;-1.70;99.90
36322;DHT22;23564;48.290;11.460;2023-02-28T05:16:30;-1.60;99.90
36322;DHT22;23564;48.290;11.460;2023-02-28T05:18:56;-1.60;99.90
36322;DHT22;23564;48.290;11.460;2023-02-28T05:21:33;-1.60;1.00
36322;DHT22;23564;48.290;11.460;2023-02-28T05:24:04;-1.60;99.90
36322;DHT22;23564;48.290;11.460;2023-02-28T05:26:30;-1.60;99.90
36322;DHT22;23564;48.290;11.460;2023-02-28T05:28:56;-1.60;99.90
36322;DHT22;23564;48.290;11.460;2023-02-28T05:31:22;-1.60;99.90
36322;DHT22;23564;48.290;11.460;2023-02-28T05:33:48;-1.60;35.10
36322;DHT22;23564;48.290;11.460;2023-02-28T05:36:14;-1.50;99.90
36322;DHT22;23564;48.290;11.460;2023-02-28T05:38:53;-1.50;1.00
36322;DHT22;23564;48.290;11.460;2023-02-28T05:41:20;-1.50;10.70
36322;DHT22;23564;48.290;11.460;2023-02-28T05:43:46;-1.50;1.00
36322;DHT22;23564;48.290;11.460;2023-02-28T05:46:12;-1.50;46.00
36322;DHT22;23564;48.290;11.460;2023-02-28T05:48:39;-1.50;1.00
36322;DHT22;23564;48.290;11.460;2023-02-28T05:51:06;-1.60;25.50
36322;DHT22;23564;48.290;11.460;2023-02-28T05:53:32;-1.60;52.40
36322;DHT22;23564;48.290;11.460;2023-02-28T05:55:58;-1.60;29.20
36322;DHT22;23564;48.290;11.460;2023-02-28T05:58:24;-1.60;99.90
36322;DHT22;23564;48.290;11.460;2023-02-28T06:00:59;-1.60;99.90
36322;DHT22;23564;48.290;11.460;2023-02-28T06:03:25;-1.60;99.90
36322;DHT22;23564;48.290;11.460;2023-02-28T06:05:51;-1.50;56.00
36322;DHT22;23564;48.290;11.460;2023-02-28T06:08:16;-1.60;99.90
36322;DHT22;23564;48.290;11.460;2023-02-28T06:10:42;-1.60;99.90
36322;DHT22;23564;48.290;11.460;2023-02-28T06:13:08;-1.60;16.10
36322;DHT22;23564;48.290;11.460;2023-02-28T06:15:34;-1.60;19.40
36322;DHT22;23564;48.290;11.460;2023-02-28T06:18:00;-1.60;35.00
36322;DHT22;23564;48.290;11.460;2023-02-28T06:20:27;-1.50;1.00
36322;DHT22;23564;48.290;11.460;2023-02-28T06:22:56;-1.50;1.00
36322;DHT22;23564;48.290;11.460;2023-02-28T06:25:24;-1.50;1.00
36322;DHT22;23564;48.290;11.460;2023-02-28T06:27:49;-1.50;93.00
36322;DHT22;23564;48.290;11.460;2023-02-28T06:30:15;-1.50;99.90
36322;DHT22;23564;48.290;11.460;2023-02-28T06:32:41;-1.40;99.90
36322;DHT22;23564;48.290;11.460;2023-02-28T06:35:07;-1.40;89.20
36322;DHT22;23564;48.290;11.460;2023-02-28T06:37:32;-1.40;1.00
36322;DHT22;23564;48.290;11.460;2023-02-28T06:39:58;-1.40;64.90
36322;DHT22;23564;48.290;11.460;2023-02-28T06:42:24;-1.40;1.00
36322;DHT22;23564;48.290;11.460;2023-02-28T06:44:55;-1.30;95.00
36322;DHT22;23564;48.290;11.460;2023-02-28T06:47:21;-1.30;1.00
36322;DHT22;23564;48.290;11.460;2023-02-28T06:49:47;-1.30;99.90
36322;DHT22;23564;48.290;11.460;2023-02-28T06:52:12;-1.30;99.90
36322;DHT22;23564;48.290;11.460;2023-02-28T06:54:39;-1.30;1.00
36322;DHT22;23564;48.290;11.460;2023-02-28T06:57:04;-1.20;1.00
36322;DHT22;23564;48.290;11.460;2023-02-28T06:59:30;-1.20;12.60
36322;DHT22;23564;48.290;11.460;2023-02-28T07:01:55;-1.20;99.90
36322;DHT22;23564;48.290;11.460;2023-02-28T07:04:21;-1.20;1.00
36322;DHT22;23564;48.290;11.460;2023-02-28T07:06:47;-1.20;1.00
36322;DHT22;23564;48.290;11.460;2023-02-28T07:09:13;-1.20;1.00
36322;DHT22;23564;48.290;11.460;2023-02-28T07:11:39;-1.20;66.30
36322;DHT22;23564;48.290;11.460;2023-02-28T07:14:06;-1.10;99.90
36322;DHT22;23564;48.290;11.460;2023-02-28T07:16:32;-1.00;1.00
36322;DHT22;23564;48.290;11.460;2023-02-28T07:18:57;-1.00;99.90
36322;DHT22;23564;48.290;11.460;2023-02-28T07:21:23;-0.90;1.00
36322;DHT22;23564;48.290;11.460;2023-02-28T07:23:49;-0.90;99.90
36322;DHT22;23564;48.290;11.460;2023-02-28T07:26:17;-0.80;93.70
36322;DHT22;23564;48.290;11.460;2023-02-28T07:28:45;-0.80;99.90
36322;DHT22;23564;48.290;11.460;2023-02-28T07:31:12;-0.70;1.00
36322;DHT22;23564;48.290;11.460;2023-02-28T07:33:39;-0.70;99.90
36322;DHT22;23564;48.290;11.460;2023-02-28T07:36:11;-0.70;99.90
36322;DHT22;23564;48.290;11.460;2023-02-28T07:38:45;-0.70;99.90
36322;DHT22;23564;48.290;11.460;2023-02-28T07:41:17;-0.70;99.90
36322;DHT22;23564;48.290;11.460;2023-02-28T07:43:43;-0.60;99.90
36322;DHT22;23564;48.290;11.460;2023-02-28T07:46:12;-0.60;99.90
36322;DHT22;23564;48.290;11.460;2023-02-28T07:48:40;-0.50;99.90
36322;DHT22;23564;48.290;11.460;2023-02-28T07:51:05;-0.40;99.90
36322;DHT22;23564;48.290;11.460;2023-02-28T07:53:31;-0.40;42.80
36322;DHT22;23564;48.290;11.460;2023-02-28T07:55:58;-0.30;99.90
36322;DHT22;23564;48.290;11.460;2023-02-28T07:58:25;-0.20;1.00
36322;DHT22;23564;48.290;11.460;2023-02-28T08:00:51;-0.10;1.00
36322;DHT22;23564;48.290;11.460;2023-02-28T08:03:21;-0.10;1.00
36322;DHT22;23564;48.290;11.460;2023-02-28T08:05:47;-0.10;1.00
36322;DHT22;23564;48.290;11.460;2023-02-28T08:08:13;-0.10;1.00
36322;DHT22;23564;48.290;11.460;2023-02-28T08:10:39;0.00;1.00
36322;DHT22;23564;48.290;11.460;2023-02-28T08:13:05;-0.10;99.90
36322;DHT22;23564;48.290;11.460;2023-02-28T08:15:30;-0.10;99.90
36322;DHT22;23564;48.290;11.460;2023-02-28T08:17:56;-0.10;99.90
36322;DHT22;23564;48.290;11.460;2023-02-28T08:20:23;-0.10;1.00
36322;DHT22;23564;48.290;11.460;2023-02-28T08:22:49;0.00;99.90
36322;DHT22;23564;48.290;11.460;2023-02-28T08:25:14;-0.10;99.90
36322;DHT22;23564;48.290;11.460;2023-02-28T08:27:40;-0.10;99.90
36322;DHT22;23564;48.290;11.460;2023-02-28T08:30:06;-0.10;99.90
36322;DHT22;23564;48.290;11.460;2023-02-28T08:32:33;0.00;1.00
36322;DHT22;23564;48.290;11.460;2023-02-28T08:34:59;0.10;99.90
36322;DHT22;23564;48.290;11.460;2023-02-28T08:37:24;0.10;99.90
36322;DHT22;23564;48.290;11.460;2023-02-28T08:39:50;0.10;99.90
36322;DHT22;23564;48.290;11.460;2023-02-28T08:42:16;0.10;99.90
36322;DHT22;23564;48.290;11.460;2023-02-28T08:44:41;0.20;99.90
36322;DHT22;23564;48.290;11.460;2023-02-28T08:47:07;0.30;99.90
36322;DHT22;23564;48.290;11.460;2023-02-28T08:49:33;0.50;99.90
36322;DHT22;23564;48.290;11.460;2023-02-28T08:51:58;0.60;99.90
36322;DHT22;23564;48.290;11.460;2023-02-28T08:54:24;0.60;99.90
36322;DHT22;23564;48.290;11.460;2023-02-28T08:56:50;0.70;99.90
36322;DHT22;23564;48.290;11.460;2023-02-28T08:59:16;0.90;99.90
36322;DHT22;23564;48.290;11.460;2023-02-28T09:01:41;0.90;99.90
36322;DHT22;23564;48.290;11.460;2023-02-28T09:04:09;1.00;99.90
36322;DHT22;23564;48.290;11.460;2023-02-28T09:06:36;1.20;99.90
36322;DHT22;23564;48.290;11.460;2023-02-28T09:09:01;1.30;99.90
36322;DHT22;23564;48.290;11.460;2023-02-28T09:11:32;1.30;99.90
36322;DHT22;23564;48.290;11.460;2023-02-28T09:13:58;1.50;99.90
36322;DHT22;23564;48.290;11.460;2023-02-28T09:16:25;1.60;66.10
36322;DHT22;23564;48.290;11.460;2023-02-28T09:18:51;1.50;13.70
36322;DHT22;23564;48.290;11.460;2023-02-28T09:21:18;1.50;8.70
36322;DHT22;23564;48.290;11.460;2023-02-28T09:23:45;1.50;1.00
36322;DHT22;23564;48.290;11.460;2023-02-28T09:26:19;1.30;1.00
36322;DHT22;23564;48.290;11.460;2023-02-28T09:28:45;1.20;1.00
36322;DHT22;23564;48.290;11.460;2023-02-28T09:31:17;1.20;1.00
36322;DHT22;23564;48.290;11.460;2023-02-28T09:33:46;1.20;1.00
36322;DHT22;23564;48.290;11.460;2023-02-28T09:36:12;1.20;1.00
36322;DHT22;23564;48.290;11.460;2023-02-28T09:38:37;1.30;1.00
36322;DHT22;23564;48.290;11.460;2023-02-28T09:41:12;1.40;1.00
36322;DHT22;23564;48.290;11.460;2023-02-28T09:43:40;1.60;8.20
36322;DHT22;23564;48.290;11.460;2023-02-28T09:46:27;1.70;1.00
36322;DHT22;23564;48.290;11.460;2023-02-28T09:48:54;1.70;1.00
36322;DHT22;23564;48.290;11.460;2023-02-28T09:53:59;1.90;1.00
36322;DHT22;23564;48.290;11.460;2023-02-28T09:56:30;2.00;1.00
36322;DHT22;23564;48.290;11.460;2023-02-28T10:06:58;2.40;1.00
36322;DHT22;23564;48.290;11.460;2023-02-28T10:09:32;2.50;1.00
36322;DHT22;23564;48.290;11.460;2023-02-28T10:12:05;2.70;1.00
36322;DHT22;23564;48.290;11.460;2023-02-28T10:14:35;2.80;1.00
36322;DHT22;23564;48.290;11.460;2023-02-28T10:17:12;2.90;1.00
36322;DHT22;23564;48.290;11.460;2023-02-28T10:19:58;2.80;1.00
36322;DHT22;23564;48.290;11.460;2023-02-28T10:24:58;2.60;1.00
36322;DHT22;23564;48.290;11.460;2023-02-28T10:27:30;2.30;1.00
36322;DHT22;23564;48.290;11.460;2023-02-28T10:29:57;2.10;1.00
36322;DHT22;23564;48.290;11.460;2023-02-28T10:32:31;1.90;1.00
36322;DHT22;23564;48.290;11.460;2023-02-28T10:35:07;1.80;1.00
36322;DHT22;23564;48.290;11.460;2023-02-28T10:37:43;1.80;1.00
36322;DHT22;23564;48.290;11.460;2023-02-28T10:40:28;1.70;1.00
36322;DHT22;23564;48.290;11.460;2023-02-28T10:42:59;1.60;1.00
36322;DHT22;23564;48.290;11.460;2023-02-28T10:45:27;1.70;1.00
36322;DHT22;23564;48.290;11.460;2023-02-28T10:48:06;1.80;1.00
36322;DHT22;23564;48.290;11.460;2023-02-28T10:50:44;1.90;1.00
36322;DHT22;23564;48.290;11.460;2023-02-28T10:59:00;2.00;1.00
36322;DHT22;23564;48.290;11.460;2023-02-28T11:03:55;2.20;1.00
36322;DHT22;23564;48.290;11.460;2023-02-28T11:06:26;2.20;1.00
36322;DHT22;23564;48.290;11.460;2023-02-28T11:09:14;2.20;1.00
36322;DHT22;23564;48.290;11.460;2023-02-28T11:11:45;2.10;1.00
36322;DHT22;23564;48.290;11.460;2023-02-28T11:14:35;2.10;1.00
36322;DHT22;23564;48.290;11.460;2023-02-28T11:17:14;2.10;1.00
36322;DHT22;23564;48.290;11.460;2023-02-28T11:19:50;2.20;1.00
36322;DHT22;23564;48.290;11.460;2023-02-28T11:22:27;2.30;1.00
36322;DHT22;23564;48.290;11.460;2023-02-28T11:25:02;2.30;1.00
36322;DHT22;23564;48.290;11.460;2023-02-28T11:29:59;2.30;1.00
36322;DHT22;23564;48.290;11.460;2023-02-28T11:32:28;2.40;1.00
36322;DHT22;23564;48.290;11.460;2023-02-28T11:35:26;2.50;1.00
36322;DHT22;23564;48.290;11.460;2023-02-28T11:37:50;2.60;1.00
36322;DHT22;23564;48.290;11.460;2023-02-28T11:40:19;2.70;1.00
36322;DHT22;23564;48.290;11.460;2023-02-28T11:42:49;2.70;1.00
36322;DHT22;23564;48.290;11.460;2023-02-28T11:45:42;2.60;1.00
36322;DHT22;23564;48.290;11.460;2023-02-28T11:48:27;2.50;1.00
36322;DHT22;23564;48.290;11.460;2023-02-28T11:51:06;2.50;1.00
36322;DHT22;23564;48.290;11.460;2023-02-28T11:56:38;2.50;1.00
36322;DHT22;23564;48.290;11.460;2023-02-28T11:59:30;2.50;1.00
36322;DHT22;23564;48.290;11.460;2023-02-28T12:04:47;2.70;1.00
36322;DHT22;23564;48.290;11.460;2023-02-28T12:12:53;2.80;1.00
36322;DHT22;23564;48.290;11.460;2023-02-28T12:24:47;3.00;1.00
36322;DHT22;23564;48.290;11.460;2023-02-28T12:26:53;3.00;1.00
36322;DHT22;23564;48.290;11.460;2023-02-28T12:29:50;3.00;1.00
36322;DHT22;23564;48.290;11.460;2023-02-28T12:32:34;3.00;1.00
36322;DHT22;23564;48.290;11.460;2023-02-28T12:37:49;2.80;1.00
36322;DHT22;23564;48.290;11.460;2023-02-28T12:40:20;2.60;1.00
36322;DHT22;23564;48.290;11.460;2023-02-28T12:42:52;2.60;1.00
36322;DHT22;23564;48.290;11.460;2023-02-28T12:45:23;2.70;1.00
36322;DHT22;23564;48.290;11.460;2023-02-28T12:48:02;2.80;1.00
36322;DHT22;23564;48.290;11.460;2023-02-28T12:50:29;2.90;1.00
36322;DHT22;23564;48.290;11.460;2023-02-28T12:53:27;3.10;1.00
36322;DHT22;23564;48.290;11.460;2023-02-28T12:59:20;3.40;1.00
36322;DHT22;23564;48.290;11.460;2023-02-28T13:09:31;3.30;1.00
36322;DHT22;23564;48.290;11.460;2023-02-28T13:11:57;3.20;1.00
36322;DHT22;23564;48.290;11.460;2023-02-28T13:14:30;3.20;1.00
36322;DHT22;23564;48.290;11.460;2023-02-28T13:19:35;3.30;1.00
36322;DHT22;23564;48.290;11.460;2023-02-28T13:22:02;3.30;1.00
36322;DHT22;23564;48.290;11.460;2023-02-28T13:24:44;3.20;1.00
36322;DHT22;23564;48.290;11.460;2023-02-28T13:29:42;3.10;1.00
36322;DHT22;23564;48.290;11.460;2023-02-28T13:34:36;3.00;1.00
36322;DHT22;23564;48.290;11.460;2023-02-28T13:40:33;3.00;1.00
36322;DHT22;23564;48.290;11.460;2023-02-28T13:43:08;3.10;1.00
36322;DHT22;23564;48.290;11.460;2023-02-28T13:45:34;3.20;1.00
36322;DHT22;23564;48.290;11.460;2023-02-28T13:48:24;3.30;1.00
36322;DHT22;23564;48.290;11.460;2023-02-28T13:50:52;3.40;1.00
36322;DHT22;23564;48.290;11.460;2023-02-28T13:53:39;3.40;1.00
36322;DHT22;23564;48.290;11.460;2023-02-28T13:59:31;3.60;1.00
36322;DHT22;23564;48.290;11.460;2023-02-28T14:05:04;3.80;1.00
36322;DHT22;23564;48.290;11.460;2023-02-28T14:07:37;3.80;1.00
36322;DHT22;23564;48.290;11.460;2023-02-28T14:10:07;3.70;1.00
36322;DHT22;23564;48.290;11.460;2023-02-28T14:16:03;3.40;1.00
36322;DHT22;23564;48.290;11.460;2023-02-28T14:18:35;3.50;1.00
36322;DHT22;23564;48.290;11.460;2023-02-28T14:21:11;3.40;1.00
36322;DHT22;23564;48.290;11.460;2023-02-28T14:31:28;3.20;1.00
36322;DHT22;23564;48.290;11.460;2023-02-28T14:36:44;3.00;1.00
36322;DHT22;23564;48.290;11.460;2023-02-28T14:39:20;3.00;1.00
36322;DHT22;23564;48.290;11.460;2023-02-28T14:41:47;3.10;1.00
36322;DHT22;23564;48.290;11.460;2023-02-28T14:44:18;3.20;99.90
36322;DHT22;23564;48.290;11.460;2023-02-28T14:46:47;3.10;99.90
36322;DHT22;23564;48.290;11.460;2023-02-28T14:49:21;3.10;99.90
36322;DHT22;23564;48.290;11.460;2023-02-28T14:54:35;3.10;1.00
36322;DHT22;23564;48.290;11.460;2023-02-28T14:57:01;3.10;1.00
36322;DHT22;23564;48.290;11.460;2023-02-28T14:59:36;3.20;1.00
36322;DHT22;23564;48.290;11.460;2023-02-28T15:02:21;3.20;1.00
36322;DHT22;23564;48.290;11.460;2023-02-28T15:04:55;3.20;1.00
36322;DHT22;23564;48.290;11.460;2023-02-28T15:07:22;3.30;1.00
36322;DHT22;23564;48.290;11.460;2023-02-28T15:12:36;3.40;1.00
36322;DHT22;23564;48.290;11.460;2023-02-28T15:15:02;3.50;1.00
36322;DHT22;23564;48.290;11.460;2023-02-28T15:17:28;3.50;1.00
36322;DHT22;23564;48.290;11.460;2023-02-28T15:19:55;3.50;1.00
36322;DHT22;23564;48.290;11.460;2023-02-28T15:22:29;3.50;1.00
36322;DHT22;23564;48.290;11.460;2023-02-28T15:24:56;3.50;1.00
36322;DHT22;23564;48.290;11.460;2023-02-28T15:27:26;3.40;1.00
36322;DHT22;23564;48.290;11.460;2023-02-28T15:30:00;3.50;1.00
36322;DHT22;23564;48.290;11.460;2023-02-28T15:32:38;3.50;1.00
36322;DHT22;23564;48.290;11.460;2023-02-28T15:35:29;3.50;1.00
36322;DHT22;23564;48.290;11.460;2023-02-28T15:37:57;3.40;1.00
36322;DHT22;23564;48.290;11.460;2023-02-28T15:43:15;3.40;1.00
36322;DHT22;23564;48.290;11.460;2023-02-28T15:45:46;3.40;1.00
36322;DHT22;23564;48.290;11.460;2023-02-28T15:48:24;3.30;1.00
36322;DHT22;23564;48.290;11.460;2023-02-28T15:50:57;3.30;1.00
36322;DHT22;23564;48.290;11.460;2023-02-28T15:53:30;3.20;1.00
36322;DHT22;23564;48.290;11.460;2023-02-28T15:56:02;3.20;1.00
36322;DHT22;23564;48.290;11.460;2023-02-28T15:58:28;3.10;1.00
36322;DHT22;23564;48.290;11.460;2023-02-28T16:03:44;3.00;1.00
36322;DHT22;23564;48.290;11.460;2023-02-28T16:08:42;2.90;1.00
36322;DHT22;23564;48.290;11.460;2023-02-28T16:11:11;2.80;1.00
36322;DHT22;23564;48.290;11.460;2023-02-28T16:13:37;2.80;1.00
36322;DHT22;23564;48.290;11.460;2023-02-28T16:16:03;2.80;1.00
36322;DHT22;23564;48.290;11.460;2023-02-28T16:18:29;2.80;1.00
36322;DHT22;23564;48.290;11.460;2023-02-28T16:20:54;2.70;1.00
36322;DHT22;23564;48.290;11.460;2023-02-28T16:23:20;2.70;1.00
36322;DHT22;23564;48.290;11.460;2023-02-28T16:25:45;2.70;1.00
36322;DHT22;23564;48.290;11.460;2023-02-28T16:28:24;2.60;1.00
36322;DHT22;23564;48.290;11.460;2023-02-28T16:30:53;2.50;1.00
36322;DHT22;23564;48.290;11.460;2023-02-28T16:33:19;2.50;1.00
36322;DHT22;23564;48.290;11.460;2023-02-28T16:35:44;2.40;1.00
36322;DHT22;23564;48.290;11.460;2023-02-28T16:38:10;2.40;1.00
36322;DHT22;23564;48.290;11.460;2023-02-28T16:40:36;2.20;1.00
36322;DHT22;23564;48.290;11.460;2023-02-28T16:43:06;2.20;1.00
36322;DHT22;23564;48.290;11.460;2023-02-28T16:45:33;2.10;1.00
36322;DHT22;23564;48.290;11.460;2023-02-28T16:47:59;2.00;1.00
36322;DHT22;23564;48.290;11.460;2023-02-28T16:50:27;1.90;1.00
36322;DHT22;23564;48.290;11.460;2023-02-28T16:52:53;1.90;1.00
36322;DHT22;23564;48.290;11.460;2023-02-28T16:55:20;1.80;1.00
36322;DHT22;23564;48.290;11.460;2023-02-28T16:58:00;1.80;1.00
36322;DHT22;23564;48.290;11.460;2023-02-28T17:00:27;1.70;1.00
36322;DHT22;23564;48.290;11.460;2023-02-28T17:02:54;1.70;1.00
36322;DHT22;23564;48.290;11.460;2023-02-28T17:05:20;1.70;1.00
36322;DHT22;23564;48.290;11.460;2023-02-28T17:07:46;1.60;1.00
36322;DHT22;23564;48.290;11.460;2023-02-28T17:10:15;1.60;1.00
36322;DHT22;23564;48.290;11.460;2023-02-28T17:12:41;1.50;1.00
36322;DHT22;23564;48.290;11.460;2023-02-28T17:15:08;1.50;1.00
36322;DHT22;23564;48.290;11.460;2023-02-28T17:17:34;1.50;1.00
36322;DHT22;23564;48.290;11.460;2023-02-28T17:20:00;1.50;1.00
36322;DHT22;23564;48.290;11.460;2023-02-28T17:22:25;1.40;1.00
36322;DHT22;23564;48.290;11.460;2023-02-28T17:24:51;1.40;19.00
36322;DHT22;23564;48.290;11.460;2023-02-28T17:27:21;1.30;88.60
36322;DHT22;23564;48.290;11.460;2023-02-28T17:29:46;1.20;99.90
36322;DHT22;23564;48.290;11.460;2023-02-28T17:32:12;1.20;99.90
36322;DHT22;23564;48.290;11.460;2023-02-28T17:34:38;1.10;99.90
36322;DHT22;23564;48.290;11.460;2023-02-28T17:37:04;1.10;99.90
36322;DHT22;23564;48.290;11.460;2023-02-28T17:39:29;1.00;1.00
36322;DHT22;23564;48.290;11.460;2023-02-28T17:41:56;1.00;58.10
36322;DHT22;23564;48.290;11.460;2023-02-28T17:44:23;0.90;99.90
36322;DHT22;23564;48.290;11.460;2023-02-28T17:46:49;0.80;99.90
36322;DHT22;23564;48.290;11.460;2023-02-28T17:49:16;0.80;1.00
36322;DHT22;23564;48.290;11.460;2023-02-28T17:51:42;0.80;99.90
36322;DHT22;23564;48.290;11.460;2023-02-28T17:54:08;0.80;99.90
36322;DHT22;23564;48.290;11.460;2023-02-28T17:56:34;0.80;99.90
36322;DHT22;23564;48.290;11.460;2023-02-28T17:58:59;0.90;99.90
36322;DHT22;23564;48.290;11.460;2023-02-28T18:01:25;1.00;99.90
36322;DHT22;23564;48.290;11.460;2023-02-28T18:03:52;1.10;1.00
36322;DHT22;23564;48.290;11.460;2023-02-28T18:06:36;1.20;99.90
36322;DHT22;23564;48.290;11.460;2023-02-28T18:09:14;1.30;99.90